sensor_id;sensor_type;location;lat;lon;timestamp;temperature;humidity
15184;DHT22;7693;49.266;7.104;2024-02-15T05:16:47;8.90;99.90
15184;DHT22;7693;49.266;7.104;2024-02-15T05:19:17;8.90;99.90
15184;DHT22;7693;49.266;7.104;2024-02-15T05:21:43;8.90;99.90
15184;DHT22;7693;49.266;7.104;2024-02-15T05:24:14;8.90;99.90
15184;DHT22;7693;49.266;7.104;2024-02-15T05:26:44;9.00;99.90
15184;DHT22;7693;49.266;7.104;2024-02-15T05:29:14;9.00;99.90
15184;DHT22;7693;49.266;7.104;2024-02-15T05:31:40;9.00;99.90
15184;DHT22;7693;49.266;7.104;2024-02-15T05:34:07;9.10;99.90
15184;DHT22;7693;49.266;7.104;2024-02-15T05:36:33;9.10;99.90
15184;DHT22;7693;49.266;7.104;2024-02-15T05:39:00;9.10;99.90
15184;DHT22;7693;49.266;7.104;2024-02-15T05:41:25;9.20;99.90
15184;DHT22;7693;49.266;7.104;2024-02-15T05:43:51;9.30;99.90
15184;DHT22;7693;49.266;7.104;2024-02-15T05:46:20;9.30;99.90
15184;DHT22;7693;49.266;7.104;2024-02-15T05:48:49;9.30;99.90
15184;DHT22;7693;49.266;7.104;2024-02-15T05:51:15;9.30;99.90
15184;DHT22;7693;49.266;7.104;2024-02-15T05:53:41;9.30;99.90
15184;DHT22;7693;49.266;7.104;2024-02-15T05:56:08;9.30;99.90
15184;DHT22;7693;49.266;7.104;2024-02-15T05:58:34;9.30;99.90
15184;DHT22;7693;49.266;7.104;2024-02-15T06:01:01;9.30;99.90
15184;DHT22;7693;49.266;7.104;2024-02-15T06:03:31;9.30;99.90
15184;DHT22;7693;49.266;7.104;2024-02-15T06:06:00;9.30;99.90
15184;DHT22;7693;49.266;7.104;2024-02-15T06:08:30;9.30;99.90
15184;DHT22;7693;49.266;7.104;2024-02-15T06:10:56;9.30;99.90
15184;DHT22;7693;49.266;7.104;2024-02-15T06:13:22;9.20;99.90
15184;DHT22;7693;49.266;7.104;2024-02-15T06:15:49;9.30;99.90
15184;DHT22;7693;49.266;7.104;2024-02-15T06:18:22;9.20;99.90
15184;DHT22;7693;49.266;7.104;2024-02-15T06:20:52;9.20;99.90
15184;DHT22;7693;49.266;7.104;2024-02-15T06:23:18;9.20;99.90
15184;DHT22;7693;49.266;7.104;2024-02-15T06:25:45;9.20;99.90
15184;DHT22;7693;49.266;7.104;2024-02-15T06:28:13;9.20;99.90
15184;DHT22;7693;49.266;7.104;2024-02-15T06:30:46;9.20;99.90
15184;DHT22;7693;49.266;7.104;2024-02-15T06:33:30;9.20;99.90
15184;DHT22;7693;49.266;7.104;2024-02-15T06:36:14;9.10;99.90
15184;DHT22;7693;49.266;7.104;2024-02-15T06:38:58;9.10;99.90
15184;DHT22;7693;49.266;7.104;2024-02-15T06:41:42;9.10;99.90
15184;DHT22;7693;49.266;7.104;2024-02-15T06:44:08;9.10;99.90
15184;DHT22;7693;49.266;7.104;2024-02-15T06:46:35;9.00;99.90
15184;DHT22;7693;49.266;7.104;2024-02-15T06:49:00;9.00;99.90
15184;DHT22;7693;49.266;7.104;2024-02-15T06:51:26;9.00;99.90
15184;DHT22;7693;49.266;7.104;2024-02-15T06:53:52;9.00;99.90
15184;DHT22;7693;49.266;7.104;2024-02-15T06:56:21;9.00;99.90
15184;DHT22;7693;49.266;7.104;2024-02-15T06:58:47;9.00;99.90
15184;DHT22;7693;49.266;7.104;2024-02-15T07:01:14;9.00;99.90
15184;DHT22;7693;49.266;7.104;2024-02-15T07:03:42;9.00;99.90
15184;DHT22;7693;49.266;7.104;2024-02-15T07:06:10;9.00;99.90
15184;DHT22;7693;49.266;7.104;2024-02-15T07:08:39;9.00;99.90
15184;DHT22;7693;49.266;7.104;2024-02-15T07:11:07;9.00;99.90
15184;DHT22;7693;49.266;7.104;2024-02-15T07:13:37;9.00;99.90
15184;DHT22;7693;49.266;7.104;2024-02-15T07:16:07;9.10;99.90
15184;DHT22;7693;49.266;7.104;2024-02-15T07:18:33;9.10;99.90
15184;DHT22;7693;49.266;7.104;2024-02-15T07:20:59;9.10;99.90
15184;DHT22;7693;49.266;7.104;2024-02-15T07:23:26;9.20;99.90
15184;DHT22;7693;49.266;7.104;2024-02-15T07:25:52;9.20;99.90
15184;DHT22;7693;49.266;7.104;2024-02-15T07:28:20;9.20;99.90
15184;DHT22;7693;49.266;7.104;2024-02-15T07:30:46;9.30;99.90
15184;DHT22;7693;49.266;7.104;2024-02-15T07:33:14;9.30;99.90
15184;DHT22;7693;49.266;7.104;2024-02-15T07:35:46;9.30;99.90
15184;DHT22;7693;49.266;7.104;2024-02-15T07:38:12;9.40;99.90
15184;DHT22;7693;49.266;7.104;2024-02-15T07:40:37;9.40;99.90
15184;DHT22;7693;49.266;7.104;2024-02-15T07:43:05;9.50;99.90
15184;DHT22;7693;49.266;7.104;2024-02-15T07:45:31;9.50;99.90
15184;DHT22;7693;49.266;7.104;2024-02-15T07:48:01;9.60;99.90
15184;DHT22;7693;49.266;7.104;2024-02-15T07:50:26;9.70;99.90
15184;DHT22;7693;49.266;7.104;2024-02-15T07:52:52;9.70;99.90
15184;DHT22;7693;49.266;7.104;2024-02-15T07:55:18;9.80;99.90
15184;DHT22;7693;49.266;7.104;2024-02-15T07:57:44;9.90;99.90
15184;DHT22;7693;49.266;7.104;2024-02-15T08:00:13;10.00;99.90
15184;DHT22;7693;49.266;7.104;2024-02-15T08:02:45;10.00;99.90
15184;DHT22;7693;49.266;7.104;2024-02-15T08:05:11;10.00;99.90
15184;DHT22;7693;49.266;7.104;2024-02-15T08:07:44;10.00;99.90
15184;DHT22;7693;49.266;7.104;2024-02-15T08:10:11;10.10;99.90
15184;DHT22;7693;49.266;7.104;2024-02-15T08:12:46;10.10;99.90
15184;DHT22;7693;49.266;7.104;2024-02-15T08:15:14;10.20;99.90
15184;DHT22;7693;49.266;7.104;2024-02-15T08:17:44;10.20;99.90
15184;DHT22;7693;49.266;7.104;2024-02-15T08:20:14;10.20;99.90
15184;DHT22;7693;49.266;7.104;2024-02-15T08:22:41;10.30;99.90
15184;DHT22;7693;49.266;7.104;2024-02-15T08:25:11;10.30;99.90
15184;DHT22;7693;49.266;7.104;2024-02-15T08:27:42;10.40;99.90
15184;DHT22;7693;49.266;7.104;2024-02-15T08:30:11;10.50;99.90
15184;DHT22;7693;49.266;7.104;2024-02-15T08:32:39;10.50;99.90
15184;DHT22;7693;49.266;7.104;2024-02-15T08:35:06;10.50;99.90
15184;DHT22;7693;49.266;7.104;2024-02-15T08:37:32;10.60;99.90
15184;DHT22;7693;49.266;7.104;2024-02-15T08:40:01;10.60;99.90
15184;DHT22;7693;49.266;7.104;2024-02-15T08:42:27;10.70;99.90
15184;DHT22;7693;49.266;7.104;2024-02-15T08:44:52;10.70;99.90
15184;DHT22;7693;49.266;7.104;2024-02-15T08:47:18;10.80;99.90
15184;DHT22;7693;49.266;7.104;2024-02-15T08:49:44;10.80;99.90
15184;DHT22;7693;49.266;7.104;2024-02-15T08:52:09;10.90;99.90
15184;DHT22;7693;49.266;7.104;2024-02-15T08:54:35;10.90;99.90
15184;DHT22;7693;49.266;7.104;2024-02-15T08:57:04;11.00;99.90
15184;DHT22;7693;49.266;7.104;2024-02-15T08:59:30;11.00;99.90
15184;DHT22;7693;49.266;7.104;2024-02-15T09:01:56;11.00;99.90
15184;DHT22;7693;49.266;7.104;2024-02-15T09:04:23;11.10;99.90
15184;DHT22;7693;49.266;7.104;2024-02-15T09:06:52;11.10;99.90
15184;DHT22;7693;49.266;7.104;2024-02-15T09:09:18;11.10;99.90
15184;DHT22;7693;49.266;7.104;2024-02-15T09:11:43;11.20;99.90
15184;DHT22;7693;49.266;7.104;2024-02-15T09:14:09;11.20;99.90
15184;DHT22;7693;49.266;7.104;2024-02-15T09:16:38;11.30;99.90
15184;DHT22;7693;49.266;7.104;2024-02-15T09:19:08;11.30;99.90
15184;DHT22;7693;49.266;7.104;2024-02-15T09:21:33;11.40;99.90
15184;DHT22;7693;49.266;7.104;2024-02-15T09:23:59;11.40;99.90
15184;DHT22;7693;49.266;7.104;2024-02-15T09:26:25;11.50;99.90
15184;DHT22;7693;49.266;7.104;2024-02-15T09:28:51;11.50;99.90
15184;DHT22;7693;49.266;7.104;2024-02-15T09:31:19;11.60;99.90
15184;DHT22;7693;49.266;7.104;2024-02-15T09:33:44;11.60;99.90
15184;DHT22;7693;49.266;7.104;2024-02-15T09:36:11;11.70;99.90
15184;DHT22;7693;49.266;7.104;2024-02-15T09:38:37;11.70;99.90
15184;DHT22;7693;49.266;7.104;2024-02-15T09:41:03;11.80;99.90
15184;DHT22;7693;49.266;7.104;2024-02-15T09:43:32;11.80;99.90
15184;DHT22;7693;49.266;7.104;2024-02-15T09:45:58;11.90;99.90
15184;DHT22;7693;49.266;7.104;2024-02-15T09:48:25;12.00;99.90
15184;DHT22;7693;49.266;7.104;2024-02-15T09:50:52;12.00;99.90
15184;DHT22;7693;49.266;7.104;2024-02-15T09:53:22;12.10;99.90
15184;DHT22;7693;49.266;7.104;2024-02-15T09:55:53;12.20;99.90
15184;DHT22;7693;49.266;7.104;2024-02-15T09:58:20;12.20;99.90
15184;DHT22;7693;49.266;7.104;2024-02-15T10:00:49;12.30;99.90
15184;DHT22;7693;49.266;7.104;2024-02-15T10:03:18;12.30;99.90
15184;DHT22;7693;49.266;7.104;2024-02-15T10:05:48;12.30;99.90
15184;DHT22;7693;49.266;7.104;2024-02-15T10:08:14;12.30;99.90
15184;DHT22;7693;49.266;7.104;2024-02-15T10:10:41;12.40;99.90
15184;DHT22;7693;49.266;7.104;2024-02-15T10:13:12;12.40;99.90
15184;DHT22;7693;49.266;7.104;2024-02-15T10:15:39;12.40;99.90
15184;DHT22;7693;49.266;7.104;2024-02-15T10:18:10;12.50;99.90
15184;DHT22;7693;49.266;7.104;2024-02-15T10:20:41;12.50;99.90
15184;DHT22;7693;49.266;7.104;2024-02-15T10:23:14;12.60;99.90
15184;DHT22;7693;49.266;7.104;2024-02-15T10:25:43;12.60;99.90
15184;DHT22;7693;49.266;7.104;2024-02-15T10:28:11;12.70;99.90
15184;DHT22;7693;49.266;7.104;2024-02-15T10:30:41;12.80;99.90
15184;DHT22;7693;49.266;7.104;2024-02-15T10:33:33;12.80;99.90
15184;DHT22;7693;49.266;7.104;2024-02-15T10:36:10;12.90;99.90
15184;DHT22;7693;49.266;7.104;2024-02-15T10:38:39;13.00;99.90
15184;DHT22;7693;49.266;7.104;2024-02-15T10:41:06;13.00;99.90
15184;DHT22;7693;49.266;7.104;2024-02-15T10:43:36;13.10;99.90
15184;DHT22;7693;49.266;7.104;2024-02-15T10:46:05;13.20;99.90
15184;DHT22;7693;49.266;7.104;2024-02-15T10:48:35;13.20;99.90
15184;DHT22;7693;49.266;7.104;2024-02-15T10:51:03;13.30;99.90
15184;DHT22;7693;49.266;7.104;2024-02-15T10:53:35;13.30;99.90
15184;DHT22;7693;49.266;7.104;2024-02-15T10:56:28;13.40;99.90
15184;DHT22;7693;49.266;7.104;2024-02-15T10:59:19;13.40;99.90
15184;DHT22;7693;49.266;7.104;2024-02-15T13:59:51;14.20;99.90
15184;DHT22;7693;49.266;7.104;2024-02-15T14:02:17;14.20;99.90
15184;DHT22;7693;49.266;7.104;2024-02-15T14:04:44;14.30;99.90
15184;DHT22;7693;49.266;7.104;2024-02-15T14:07:09;14.30;99.90
15184;DHT22;7693;49.266;7.104;2024-02-15T14:09:35;14.30;99.90
15184;DHT22;7693;49.266;7.104;2024-02-15T14:12:00;14.40;99.90
15184;DHT22;7693;49.266;7.104;2024-02-15T14:14:29;14.40;99.90
15184;DHT22;7693;49.266;7.104;2024-02-15T14:16:55;14.40;99.90
15184;DHT22;7693;49.266;7.104;2024-02-15T14:19:21;14.40;99.90
15184;DHT22;7693;49.266;7.104;2024-02-15T14:21:46;14.40;99.90
15184;DHT22;7693;49.266;7.104;2024-02-15T14:24:12;14.40;99.90
15184;DHT22;7693;49.266;7.104;2024-02-15T14:26:38;14.40;99.90
15184;DHT22;7693;49.266;7.104;2024-02-15T14:29:04;14.40;99.90
15184;DHT22;7693;49.266;7.104;2024-02-15T14:31:30;14.40;99.90
15184;DHT22;7693;49.266;7.104;2024-02-15T14:34:15;14.40;99.90
15184;DHT22;7693;49.266;7.104;2024-02-15T14:36:41;14.40;99.90
15184;DHT22;7693;49.266;7.104;2024-02-15T14:39:08;14.40;99.90
15184;DHT22;7693;49.266;7.104;2024-02-15T14:41:34;14.40;99.90
15184;DHT22;7693;49.266;7.104;2024-02-15T14:44:00;14.40;99.90
15184;DHT22;7693;49.266;7.104;2024-02-15T14:46:26;14.30;99.90
15184;DHT22;7693;49.266;7.104;2024-02-15T14:48:52;14.30;99.90
15184;DHT22;7693;49.266;7.104;2024-02-15T14:51:20;14.30;99.90
15184;DHT22;7693;49.266;7.104;2024-02-15T14:53:45;14.30;99.90
15184;DHT22;7693;49.266;7.104;2024-02-15T14:56:11;14.20;99.90
15184;DHT22;7693;49.266;7.104;2024-02-15T14:58:37;14.20;99.90
15184;DHT22;7693;49.266;7.104;2024-02-15T15:01:03;14.10;99.90
15184;DHT22;7693;49.266;7.104;2024-02-15T15:03:30;14.10;99.90
15184;DHT22;7693;49.266;7.104;2024-02-15T15:05:59;14.10;99.90
15184;DHT22;7693;49.266;7.104;2024-02-15T15:08:43;14.00;99.90
15184;DHT22;7693;49.266;7.104;2024-02-15T15:11:27;14.00;99.90
15184;DHT22;7693;49.266;7.104;2024-02-15T15:14:11;14.00;99.90
15184;DHT22;7693;49.266;7.104;2024-02-15T15:16:38;13.90;99.90
15184;DHT22;7693;49.266;7.104;2024-02-15T15:19:04;13.90;99.90
15184;DHT22;7693;49.266;7.104;2024-02-15T15:21:29;13.90;99.90
15184;DHT22;7693;49.266;7.104;2024-02-15T15:23:55;13.90;99.90
15184;DHT22;7693;49.266;7.104;2024-02-15T15:26:21;13.80;99.90
15184;DHT22;7693;49.266;7.104;2024-02-15T15:28:47;13.80;99.90
15184;DHT22;7693;49.266;7.104;2024-02-15T15:31:13;13.80;99.90
15184;DHT22;7693;49.266;7.104;2024-02-15T15:33:41;13.80;99.90
15184;DHT22;7693;49.266;7.104;2024-02-15T15:36:07;13.80;99.90
15184;DHT22;7693;49.266;7.104;2024-02-15T15:38:32;13.80;99.90
15184;DHT22;7693;49.266;7.104;2024-02-15T15:40:58;13.80;99.90
15184;DHT22;7693;49.266;7.104;2024-02-15T15:43:24;13.80;99.90
15184;DHT22;7693;49.266;7.104;2024-02-15T15:45:50;13.80;99.90
15184;DHT22;7693;49.266;7.104;2024-02-15T15:48:20;13.80;99.90
15184;DHT22;7693;49.266;7.104;2024-02-15T15:50:46;13.80;99.90
15184;DHT22;7693;49.266;7.104;2024-02-15T15:53:13;13.80;99.90
15184;DHT22;7693;49.266;7.104;2024-02-15T15:55:38;13.70;99.90
15184;DHT22;7693;49.266;7.104;2024-02-15T15:58:04;13.70;99.90
15184;DHT22;7693;49.266;7.104;2024-02-15T16:00:33;13.70;99.90
15184;DHT22;7693;49.266;7.104;2024-02-15T16:03:01;13.70;99.90
15184;DHT22;7693;49.266;7.104;2024-02-15T16:05:27;13.70;99.90
15184;DHT22;7693;49.266;7.104;2024-02-15T16:07:53;13.60;99.90
15184;DHT22;7693;49.266;7.104;2024-02-15T16:10:19;13.60;99.90
15184;DHT22;7693;49.266;7.104;2024-02-15T16:12:49;13.50;99.90
15184;DHT22;7693;49.266;7.104;2024-02-15T16:15:16;13.50;99.90
15184;DHT22;7693;49.266;7.104;2024-02-15T16:17:44;13.40;99.90
15184;DHT22;7693;49.266;7.104;2024-02-15T16:20:11;13.40;99.90
15184;DHT22;7693;49.266;7.104;2024-02-15T16:22:40;13.30;99.90
15184;DHT22;7693;49.266;7.104;2024-02-15T16:25:07;13.30;99.90
15184;DHT22;7693;49.266;7.104;2024-02-15T16:27:39;13.20;99.90
15184;DHT22;7693;49.266;7.104;2024-02-15T16:30:06;13.30;99.90
15184;DHT22;7693;49.266;7.104;2024-02-15T16:32:35;13.20;99.90
15184;DHT22;7693;49.266;7.104;2024-02-15T16:35:04;13.20;99.90
15184;DHT22;7693;49.266;7.104;2024-02-15T16:37:39;13.20;99.90
15184;DHT22;7693;49.266;7.104;2024-02-15T16:40:08;13.10;99.90
15184;DHT22;7693;49.266;7.104;2024-02-15T16:42:35;13.10;99.90
15184;DHT22;7693;49.266;7.104;2024-02-15T16:45:08;13.20;99.90
15184;DHT22;7693;49.266;7.104;2024-02-15T16:47:34;13.10;99.90
15184;DHT22;7693;49.266;7.104;2024-02-15T16:50:02;13.10;99.90
15184;DHT22;7693;49.266;7.104;2024-02-15T16:52:28;13.10;99.90
15184;DHT22;7693;49.266;7.104;2024-02-15T16:54:54;13.10;99.90
15184;DHT22;7693;49.266;7.104;2024-02-15T16:57:20;13.00;99.90
15184;DHT22;7693;49.266;7.104;2024-02-15T16:59:46;13.00;99.90
15184;DHT22;7693;49.266;7.104;2024-02-15T17:02:12;13.00;99.90
15184;DHT22;7693;49.266;7.104;2024-02-15T17:04:38;12.90;99.90
15184;DHT22;7693;49.266;7.104;2024-02-15T17:07:03;12.90;99.90
15184;DHT22;7693;49.266;7.104;2024-02-15T17:09:29;12.90;99.90
15184;DHT22;7693;49.266;7.104;2024-02-15T17:11:55;12.90;99.90
15184;DHT22;7693;49.266;7.104;2024-02-15T17:14:20;12.90;99.90
15184;DHT22;7693;49.266;7.104;2024-02-15T17:16:46;12.80;99.90
15184;DHT22;7693;49.266;7.104;2024-02-15T17:19:12;12.80;99.90
15184;DHT22;7693;49.266;7.104;2024-02-15T17:21:41;12.70;99.90
15184;DHT22;7693;49.266;7.104;2024-02-15T17:24:10;12.70;99.90
15184;DHT22;7693;49.266;7.104;2024-02-15T17:26:43;12.70;99.90
15184;DHT22;7693;49.266;7.104;2024-02-15T17:29:12;12.70;99.90
15184;DHT22;7693;49.266;7.104;2024-02-15T17:31:39;12.60;99.90
15184;DHT22;7693;49.266;7.104;2024-02-15T17:34:08;12.60;99.90
15184;DHT22;7693;49.266;7.104;2024-02-15T17:36:37;12.60;99.90
15184;DHT22;7693;49.266;7.104;2024-02-15T17:39:04;12.50;99.90
15184;DHT22;7693;49.266;7.104;2024-02-15T17:41:30;12.50;99.90
15184;DHT22;7693;49.266;7.104;2024-02-15T17:43:57;12.50;99.90
15184;DHT22;7693;49.266;7.104;2024-02-15T17:46:26;12.40;99.90
15184;DHT22;7693;49.266;7.104;2024-02-15T17:48:52;12.40;99.90
15184;DHT22;7693;49.266;7.104;2024-02-15T17:51:18;12.40;99.90
15184;DHT22;7693;49.266;7.104;2024-02-15T17:53:44;12.30;99.90
15184;DHT22;7693;49.266;7.104;2024-02-15T17:56:10;12.30;99.90
15184;DHT22;7693;49.266;7.104;2024-02-15T17:58:42;12.30;99.90
15184;DHT22;7693;49.266;7.104;2024-02-15T18:01:08;12.20;99.90
15184;DHT22;7693;49.266;7.104;2024-02-15T18:03:34;12.30;99.90
15184;DHT22;7693;49.266;7.104;2024-02-15T18:05:59;12.20;99.90
15184;DHT22;7693;49.266;7.104;2024-02-15T18:08:25;12.20;99.90
15184;DHT22;7693;49.266;7.104;2024-02-15T18:10:52;12.20;99.90
15184;DHT22;7693;49.266;7.104;2024-02-15T18:13:22;12.20;99.90
15184;DHT22;7693;49.266;7.104;2024-02-15T18:15:48;12.20;99.90
15184;DHT22;7693;49.266;7.104;2024-02-15T18:18:15;12.20;99.90
15184;DHT22;7693;49.266;7.104;2024-02-15T18:20:41;12.20;99.90
15184;DHT22;7693;49.266;7.104;2024-02-15T18:23:07;12.10;99.90
15184;DHT22;7693;49.266;7.104;2024-02-15T18:25:34;12.10;99.90
15184;DHT22;7693;49.266;7.104;2024-02-15T18:28:01;12.10;99.90
15184;DHT22;7693;49.266;7.104;2024-02-15T18:30:27;12.00;99.90
15184;DHT22;7693;49.266;7.104;2024-02-15T18:33:02;12.00;99.90
15184;DHT22;7693;49.266;7.104;2024-02-15T18:35:29;12.00;99.90
15184;DHT22;7693;49.266;7.104;2024-02-15T18:37:54;12.00;99.90
15184;DHT22;7693;49.266;7.104;2024-02-15T18:40:20;11.90;99.90
15184;DHT22;7693;49.266;7.104;2024-02-15T18:42:45;11.90;99.90
15184;DHT22;7693;49.266;7.104;2024-02-15T18:45:13;11.90;99.90
15184;DHT22;7693;49.266;7.104;2024-02-15T18:47:39;11.90;99.90
15184;DHT22;7693;49.266;7.104;2024-02-15T18:50:05;11.80;99.90
15184;DHT22;7693;49.266;7.104;2024-02-15T18:52:34;11.80;99.90
15184;DHT22;7693;49.266;7.104;2024-02-15T18:55:00;11.80;99.90
15184;DHT22;7693;49.266;7.104;2024-02-15T18:57:26;11.80;99.90
15184;DHT22;7693;49.266;7.104;2024-02-15T18:59:52;11.80;99.90
15184;DHT22;7693;49.266;7.104;2024-02-15T19:02:19;11.80;99.90
15184;DHT22;7693;49.266;7.104;2024-02-15T19:04:45;11.70;99.90
15184;DHT22;7693;49.266;7.104;2024-02-15T19:07:12;11.70;99.90
15184;DHT22;7693;49.266;7.104;2024-02-15T19:09:37;11.70;99.90
15184;DHT22;7693;49.266;7.104;2024-02-15T19:12:03;11.70;99.90
15184;DHT22;7693;49.266;7.104;2024-02-15T19:14:35;11.70;99.90
15184;DHT22;7693;49.266;7.104;2024-02-15T19:17:02;11.70;99.90
15184;DHT22;7693;49.266;7.104;2024-02-15T19:19:27;11.70;99.90
15184;DHT22;7693;49.266;7.104;2024-02-15T19:21:53;11.70;99.90
15184;DHT22;7693;49.266;7.104;2024-02-15T19:24:19;11.60;99.90
15184;DHT22;7693;49.266;7.104;2024-02-15T19:26:45;11.60;99.90
15184;DHT22;7693;49.266;7.104;2024-02-15T19:29:12;11.60;99.90
15184;DHT22;7693;49.266;7.104;2024-02-15T19:31:38;11.60;99.90
15184;DHT22;7693;49.266;7.104;2024-02-15T19:34:08;11.60;99.90
15184;DHT22;7693;49.266;7.104;2024-02-15T19:36:34;11.60;99.90
15184;DHT22;7693;49.266;7.104;2024-02-15T19:39:06;11.60;99.90
15184;DHT22;7693;49.266;7.104;2024-02-15T19:41:38;11.60;99.90
15184;DHT22;7693;49.266;7.104;2024-02-15T19:44:07;11.50;99.90
15184;DHT22;7693;49.266;7.104;2024-02-15T19:46:33;11.50;99.90
15184;DHT22;7693;49.266;7.104;2024-02-15T19:49:04;11.50;99.90
15184;DHT22;7693;49.266;7.104;2024-02-15T19:51:30;11.40;99.90
15184;DHT22;7693;49.266;7.104;2024-02-15T19:53:55;11.40;99.90
15184;DHT22;7693;49.266;7.104;2024-02-15T19:56:21;11.40;99.90
15184;DHT22;7693;49.266;7.104;2024-02-15T19:58:48;11.30;99.90
15184;DHT22;7693;49.266;7.104;2024-02-15T20:01:15;11.40;99.90
15184;DHT22;7693;49.266;7.104;2024-02-15T20:03:43;11.30;99.90
15184;DHT22;7693;49.266;7.104;2024-02-15T20:06:13;11.30;99.90
15184;DHT22;7693;49.266;7.104;2024-02-15T20:08:39;11.30;99.90
15184;DHT22;7693;49.266;7.104;2024-02-15T20:11:07;11.30;99.90
15184;DHT22;7693;49.266;7.104;2024-02-15T20:13:35;11.30;99.90
15184;DHT22;7693;49.266;7.104;2024-02-15T20:16:01;11.30;99.90
15184;DHT22;7693;49.266;7.104;2024-02-15T20:18:29;11.30;99.90
15184;DHT22;7693;49.266;7.104;2024-02-15T20:20:57;11.30;99.90
15184;DHT22;7693;49.266;7.104;2024-02-15T20:23:23;11.30;99.90
15184;DHT22;7693;49.266;7.104;2024-02-15T20:25:49;11.30;99.90
15184;DHT22;7693;49.266;7.104;2024-02-15T20:28:14;11.30;99.90
15184;DHT22;7693;49.266;7.104;2024-02-15T20:30:40;11.30;99.90
15184;DHT22;7693;49.266;7.104;2024-02-15T20:33:06;11.30;99.90
15184;DHT22;7693;49.266;7.104;2024-02-15T20:35:42;11.30;99.90
15184;DHT22;7693;49.266;7.104;2024-02-15T20:38:09;11.20;99.90
15184;DHT22;7693;49.266;7.104;2024-02-15T20:40:35;11.20;99.90
15184;DHT22;7693;49.266;7.104;2024-02-15T20:43:01;11.10;99.90
15184;DHT22;7693;49.266;7.104;2024-02-15T20:45:28;11.10;99.90
15184;DHT22;7693;49.266;7.104;2024-02-15T20:47:54;11.10;99.90
15184;DHT22;7693;49.266;7.104;2024-02-15T20:50:19;11.10;99.90
15184;DHT22;7693;49.266;7.104;2024-02-15T20:52:45;11.10;99.90
15184;DHT22;7693;49.266;7.104;2024-02-15T20:55:10;11.10;99.90
15184;DHT22;7693;49.266;7.104;2024-02-15T20:57:38;11.00;99.90
15184;DHT22;7693;49.266;7.104;2024-02-15T21:00:05;11.00;99.90
15184;DHT22;7693;49.266;7.104;2024-02-15T21:02:39;11.00;99.90
15184;DHT22;7693;49.266;7.104;2024-02-15T21:05:05;11.00;99.90
15184;DHT22;7693;49.266;7.104;2024-02-15T21:07:37;10.90;99.90
15184;DHT22;7693;49.266;7.104;2024-02-15T21:10:04;10.90;99.90
15184;DHT22;7693;49.266;7.104;2024-02-15T21:12:31;11.00;99.90
15184;DHT22;7693;49.266;7.104;2024-02-15T21:14:57;10.90;99.90
15184;DHT22;7693;49.266;7.104;2024-02-15T21:17:23;10.90;99.90
15184;DHT22;7693;49.266;7.104;2024-02-15T21:19:49;10.90;99.90
15184;DHT22;7693;49.266;7.104;2024-02-15T21:22:16;10.90;99.90
15184;DHT22;7693;49.266;7.104;2024-02-15T21:24:42;10.90;99.90
15184;DHT22;7693;49.266;7.104;2024-02-15T21:27:08;10.90;99.90
15184;DHT22;7693;49.266;7.104;2024-02-15T21:29:34;10.80;99.90
15184;DHT22;7693;49.266;7.104;2024-02-15T21:32:01;10.80;99.90
15184;DHT22;7693;49.266;7.104;2024-02-15T21:34:28;10.80;99.90
15184;DHT22;7693;49.266;7.104;2024-02-15T21:36:54;10.80;99.90
15184;DHT22;7693;49.266;7.104;2024-02-15T21:39:19;10.80;99.90
15184;DHT22;7693;49.266;7.104;2024-02-15T21:41:50;10.90;99.90
15184;DHT22;7693;49.266;7.104;2024-02-15T21:44:16;10.80;99.90
15184;DHT22;7693;49.266;7.104;2024-02-15T21:46:42;10.80;99.90
15184;DHT22;7693;49.266;7.104;2024-02-15T21:49:07;10.80;99.90
15184;DHT22;7693;49.266;7.104;2024-02-15T21:51:33;10.80;99.90
15184;DHT22;7693;49.266;7.104;2024-02-15T21:53:58;10.80;99.90
15184;DHT22;7693;49.266;7.104;2024-02-15T21:56:24;10.80;99.90
15184;DHT22;7693;49.266;7.104;2024-02-15T21:58:50;10.80;99.90
15184;DHT22;7693;49.266;7.104;2024-02-15T22:01:16;10.70;99.90
15184;DHT22;7693;49.266;7.104;2024-02-15T22:03:42;10.70;99.90
15184;DHT22;7693;49.266;7.104;2024-02-15T22:06:11;10.70;99.90
15184;DHT22;7693;49.266;7.104;2024-02-15T22:08:36;10.70;99.90
15184;DHT22;7693;49.266;7.104;2024-02-15T22:11:02;10.70;99.90
15184;DHT22;7693;49.266;7.104;2024-02-15T22:13:28;10.60;99.90
15184;DHT22;7693;49.266;7.104;2024-02-15T22:15:55;10.60;99.90
15184;DHT22;7693;49.266;7.104;2024-02-15T22:18:21;10.60;99.90
15184;DHT22;7693;49.266;7.104;2024-02-15T22:20:47;10.60;99.90
15184;DHT22;7693;49.266;7.104;2024-02-15T22:23:14;10.60;99.90
15184;DHT22;7693;49.266;7.104;2024-02-15T22:25:39;10.60;99.90
15184;DHT22;7693;49.266;7.104;2024-02-15T22:28:05;10.50;99.90
15184;DHT22;7693;49.266;7.104;2024-02-15T22:30:31;10.50;99.90
15184;DHT22;7693;49.266;7.104;2024-02-15T22:32:57;10.50;99.90
15184;DHT22;7693;49.266;7.104;2024-02-15T22:35:24;10.50;99.90
15184;DHT22;7693;49.266;7.104;2024-02-15T22:37:49;10.50;99.90
15184;DHT22;7693;49.266;7.104;2024-02-15T22:40:15;10.40;99.90
15184;DHT22;7693;49.266;7.104;2024-02-15T22:42:41;10.40;99.90
15184;DHT22;7693;49.266;7.104;2024-02-15T22:45:07;10.30;99.90
15184;DHT22;7693;49.266;7.104;2024-02-15T22:47:35;10.30;99.90
15184;DHT22;7693;49.266;7.104;2024-02-15T22:50:00;10.20;99.90
15184;DHT22;7693;49.266;7.104;2024-02-15T22:52:26;10.20;99.90
15184;DHT22;7693;49.266;7.104;2024-02-15T22:54:53;10.20;99.90
15184;DHT22;7693;49.266;7.104;2024-02-15T22:57:19;10.20;99.90
15184;DHT22;7693;49.266;7.104;2024-02-15T22:59:45;10.20;99.90
15184;DHT22;7693;49.266;7.104;2024-02-15T23:02:11;10.10;99.90
15184;DHT22;7693;49.266;7.104;2024-02-15T23:04:37;10.20;99.90
15184;DHT22;7693;49.266;7.104;2024-02-15T23:07:03;10.10;99.90
15184;DHT22;7693;49.266;7.104;2024-02-15T23:09:35;10.10;99.90
